Time,TemperatureF,DewpointF,PressureIn,WindDirection,WindDirectionDegrees,WindSpeedMPH,WindSpeedGustMPH,Humidity,HourlyPrecipIn,Conditions,Clouds,dailyrainin,SoftwareType,DateUTC
2013-02-24 00:00:00,42.0,40.9,29.83,WSW,246,1.0,1.0,96,0.00,,---,0.00,VWS V14.01,2013-02-24 05:00:00,
2013-02-24 00:05:00,42.0,40.9,29.82,WSW,246,0.0,1.0,96,0.00,,---,0.00,VWS V14.01,2013-02-24 05:05:00,
2013-02-24 00:10:00,42.1,41.0,29.82,WSW,246,1.0,1.0,96,0.00,,---,0.00,VWS V14.01,2013-02-24 05:10:00,
2013-02-24 00:15:00,42.1,41.0,29.81,WSW,245,1.0,1.0,96,0.00,,---,0.00,VWS V14.01,2013-02-24 05:15:00,
2013-02-24 00:20:00,42.1,41.0,29.80,SW,229,0.0,1.0,96,0.00,,---,0.00,VWS V14.01,2013-02-24 05:20:00,
2013-02-24 00:25:00,42.1,41.0,29.80,SW,229,0.0,1.0,96,0.00,,---,0.00,VWS V14.01,2013-02-24 05:25:00,
2013-02-24 00:30:00,42.1,41.0,29.81,SW,227,0.0,1.0,96,0.00,,---,0.00,VWS V14.01,2013-02-24 05:30:00,
2013-02-24 00:35:00,42.1,41.0,29.81,South,171,1.0,1.0,96,0.00,,---,0.00,VWS V14.01,2013-02-24 05:35:00,
2013-02-24 00:40:00,42.2,41.1,29.81,South,171,0.0,1.0,96,0.00,,---,0.00,VWS V14.01,2013-02-24 05:40:00,
2013-02-24 00:45:00,42.2,41.1,29.82,South,171,0.0,1.0,96,0.00,,---,0.00,VWS V14.01,2013-02-24 05:45:00,
2013-02-24 00:50:00,42.3,41.2,29.82,South,171,0.0,1.0,96,0.00,,---,0.00,VWS V14.01,2013-02-24 05:50:00,
2013-02-24 00:55:00,42.3,41.2,29.83,SW,232,2.0,2.0,96,0.00,,---,0.00,VWS V14.01,2013-02-24 05:55:00,
2013-02-24 01:00:00,42.4,41.3,29.83,South,170,2.0,2.0,96,0.00,,---,0.00,VWS V14.01,2013-02-24 06:00:00,
2013-02-24 01:05:00,42.4,41.3,29.83,South,170,1.0,2.0,96,0.00,,---,0.00,VWS V14.01,2013-02-24 06:05:00,
2013-02-24 01:10:00,42.4,41.3,29.83,SE,145,1.0,2.0,96,0.00,,---,0.00,VWS V14.01,2013-02-24 06:10:00,
2013-02-24 01:15:00,42.4,41.3,29.83,WSW,248,0.0,2.0,96,0.00,,---,0.00,VWS V14.01,2013-02-24 06:15:00,
2013-02-24 01:20:00,42.5,41.4,29.83,South,172,2.0,5.0,96,0.00,,---,0.00,VWS V14.01,2013-02-24 06:20:00,
2013-02-24 01:25:00,42.5,41.4,29.84,WSW,245,2.0,5.0,96,0.00,,---,0.00,VWS V14.01,2013-02-24 06:25:00,
2013-02-24 01:31:00,42.6,41.5,29.83,SW,221,0.0,2.0,96,0.00,,---,0.00,VWS V14.01,2013-02-24 06:31:00,
2013-02-24 01:36:00,42.7,41.6,29.82,SSW,211,0.0,2.0,96,0.00,,---,0.00,VWS V14.01,2013-02-24 06:36:00,
2013-02-24 01:41:00,42.7,41.6,29.83,WSW,253,0.0,2.0,96,0.00,,---,0.00,VWS V14.01,2013-02-24 06:41:00,
2013-02-24 01:46:00,42.7,41.6,29.82,WNW,291,0.0,2.0,96,0.00,,---,0.00,VWS V14.01,2013-02-24 06:46:00,
2013-02-24 01:51:00,42.8,41.7,29.83,WNW,302,1.0,3.0,96,0.00,,---,0.00,VWS V14.01,2013-02-24 06:51:00,
2013-02-24 01:56:00,42.8,41.7,29.82,West,261,0.0,0.0,96,0.00,,---,0.00,VWS V14.01,2013-02-24 06:56:00,
2013-02-24 02:01:00,42.8,41.7,29.82,WSW,257,0.0,0.0,96,0.00,,---,0.00,VWS V14.01,2013-02-24 07:01:00,
2013-02-24 02:06:00,42.8,41.7,29.81,SW,236,1.0,2.0,96,0.00,,---,0.00,VWS V14.01,2013-02-24 07:06:00,
2013-02-24 02:11:00,42.8,41.7,29.81,WSW,245,1.0,2.0,96,0.00,,---,0.00,VWS V14.01,2013-02-24 07:11:00,
2013-02-24 02:16:00,42.9,41.8,29.81,WSW,237,0.0,2.0,96,0.00,,---,0.00,VWS V14.01,2013-02-24 07:16:00,
2013-02-24 02:21:00,42.9,41.8,29.81,ESE,120,0.0,2.0,96,0.00,,---,0.00,VWS V14.01,2013-02-24 07:21:00,
2013-02-24 02:26:00,42.9,41.8,29.81,NW,320,2.0,2.0,96,0.00,,---,0.00,VWS V14.01,2013-02-24 07:26:00,
2013-02-24 02:31:00,43.0,41.9,29.81,NW,310,0.0,2.0,96,0.00,,---,0.00,VWS V14.01,2013-02-24 07:31:00,
2013-02-24 02:36:00,43.0,41.9,29.79,NW,310,0.0,2.0,96,0.00,,---,0.00,VWS V14.01,2013-02-24 07:36:00,
2013-02-24 02:41:00,43.0,41.9,29.80,NW,310,1.0,2.0,96,0.00,,---,0.00,VWS V14.01,2013-02-24 07:41:00,
2013-02-24 02:46:00,43.0,41.9,29.80,North,11,0.0,2.0,96,0.00,,---,0.00,VWS V14.01,2013-02-24 07:46:00,
2013-02-24 02:51:00,43.1,42.0,29.80,NNW,338,1.0,2.0,96,0.00,,---,0.00,VWS V14.01,2013-02-24 07:51:00,
2013-02-24 02:56:00,43.1,42.0,29.80,NNE,19,0.0,0.0,96,0.00,,---,0.00,VWS V14.01,2013-02-24 07:56:00,
2013-02-24 03:01:00,43.1,42.0,29.79,WNW,298,0.0,1.0,96,0.00,,---,0.00,VWS V14.01,2013-02-24 08:01:00,
2013-02-24 03:06:00,43.2,42.1,29.80,WNW,289,2.0,4.0,96,0.00,,---,0.00,VWS V14.01,2013-02-24 08:06:00,
2013-02-24 03:11:00,43.3,42.2,29.80,NW,324,4.0,4.0,96,0.00,,---,0.00,VWS V14.01,2013-02-24 08:11:00,
2013-02-24 03:16:00,43.3,42.2,29.80,NNE,26,1.0,4.0,96,0.00,,---,0.00,VWS V14.01,2013-02-24 08:16:00,
2013-02-24 03:21:00,43.4,42.3,29.81,WSW,253,1.0,4.0,96,0.00,,---,0.00,VWS V14.01,2013-02-24 08:21:00,
2013-02-24 03:27:00,43.5,42.4,29.81,NW,321,4.0,4.0,96,0.00,,---,0.00,VWS V14.01,2013-02-24 08:27:00,
2013-02-24 03:32:00,43.5,42.4,29.81,NNW,327,0.0,4.0,96,0.00,,---,0.00,VWS V14.01,2013-02-24 08:32:00,
2013-02-24 03:37:00,43.5,42.4,29.80,NNW,346,0.0,5.0,96,0.00,,---,0.00,VWS V14.01,2013-02-24 08:37:00,
2013-02-24 03:42:00,43.6,42.5,29.79,WNW,292,1.0,5.0,96,0.00,,---,0.00,VWS V14.01,2013-02-24 08:42:00,
2013-02-24 03:47:00,43.6,42.5,29.79,NE,39,1.0,5.0,96,0.00,,---,0.00,VWS V14.01,2013-02-24 08:47:00,
2013-02-24 03:52:00,43.7,42.6,29.78,ESE,114,0.0,5.0,96,0.00,,---,0.00,VWS V14.01,2013-02-24 08:52:00,
2013-02-24 03:57:00,43.6,42.5,29.78,NNW,346,1.0,1.0,96,0.00,,---,0.00,VWS V14.01,2013-02-24 08:57:00,
2013-02-24 04:02:00,43.5,42.4,29.78,NNW,346,0.0,1.0,96,0.00,,---,0.00,VWS V14.01,2013-02-24 09:02:00,
2013-02-24 04:07:00,43.3,42.2,29.78,NNW,346,0.0,1.0,96,0.00,,---,0.00,VWS V14.01,2013-02-24 09:07:00,
2013-02-24 04:12:00,43.1,42.0,29.78,NE,49,0.0,1.0,96,0.00,,---,0.00,VWS V14.01,2013-02-24 09:12:00,
2013-02-24 04:17:00,43.0,41.9,29.78,West,271,2.0,2.0,96,0.00,,---,0.00,VWS V14.01,2013-02-24 09:17:00,
2013-02-24 04:22:00,42.9,41.8,29.79,WNW,301,2.0,2.0,96,0.00,,---,0.00,VWS V14.01,2013-02-24 09:22:00,
2013-02-24 04:27:00,42.9,41.8,29.79,West,279,1.0,2.0,96,0.00,,---,0.00,VWS V14.01,2013-02-24 09:27:00,
2013-02-24 04:32:00,42.9,41.8,29.79,West,268,0.0,2.0,96,0.00,,---,0.00,VWS V14.01,2013-02-24 09:32:00,
2013-02-24 04:37:00,42.9,41.8,29.79,WNW,289,0.0,4.0,96,0.00,,---,0.00,VWS V14.01,2013-02-24 09:37:00,
2013-02-24 04:42:00,42.8,41.7,29.79,West,279,2.0,4.0,96,0.00,,---,0.00,VWS V14.01,2013-02-24 09:42:00,
2013-02-24 04:47:00,42.8,41.7,29.79,WNW,283,1.0,4.0,96,0.00,,---,0.00,VWS V14.01,2013-02-24 09:47:00,
2013-02-24 04:52:00,42.7,41.6,29.79,West,281,0.0,4.0,96,0.00,,---,0.00,VWS V14.01,2013-02-24 09:52:00,
2013-02-24 04:57:00,42.6,41.5,29.80,NNW,340,2.0,2.0,96,0.00,,---,0.00,VWS V14.01,2013-02-24 09:57:00,
2013-02-24 05:02:00,42.6,41.5,29.79,WNW,295,1.0,4.0,96,0.00,,---,0.00,VWS V14.01,2013-02-24 10:02:00,
2013-02-24 05:07:00,42.5,41.4,29.80,West,264,0.0,4.0,96,0.00,,---,0.00,VWS V14.01,2013-02-24 10:07:00,
2013-02-24 05:12:00,42.4,41.3,29.80,NNE,26,2.0,4.0,96,0.00,,---,0.00,VWS V14.01,2013-02-24 10:12:00,
2013-02-24 05:17:00,42.2,41.1,29.80,NNE,15,1.0,4.0,96,0.00,,---,0.00,VWS V14.01,2013-02-24 10:17:00,
2013-02-24 05:22:00,42.2,41.1,29.81,NW,305,0.0,4.0,96,0.00,,---,0.00,VWS V14.01,2013-02-24 10:22:00,
2013-02-24 05:27:00,42.1,41.0,29.81,NW,315,1.0,1.0,96,0.00,,---,0.00,VWS V14.01,2013-02-24 10:27:00,
2013-02-24 05:32:00,42.2,41.1,29.81,SSE,155,5.0,6.0,96,0.00,,---,0.00,VWS V14.01,2013-02-24 10:32:00,
2013-02-24 05:38:00,42.4,41.3,29.81,WNW,292,0.0,6.0,96,0.00,,---,0.00,VWS V14.01,2013-02-24 10:38:00,
2013-02-24 05:43:00,42.3,41.2,29.81,NW,325,4.0,6.0,96,0.00,,---,0.00,VWS V14.01,2013-02-24 10:43:00,
2013-02-24 05:48:00,42.4,41.3,29.81,North,11,1.0,6.0,96,0.00,,---,0.00,VWS V14.01,2013-02-24 10:48:00,
2013-02-24 05:53:00,42.4,41.3,29.81,WNW,301,1.0,6.0,96,0.00,,---,0.00,VWS V14.01,2013-02-24 10:53:00,
2013-02-24 05:58:00,42.4,41.3,29.82,NNE,32,0.0,1.0,96,0.00,,---,0.00,VWS V14.01,2013-02-24 10:58:00,
2013-02-24 06:03:00,42.4,41.3,29.82,NNW,348,0.0,4.0,96,0.00,,---,0.00,VWS V14.01,2013-02-24 11:03:00,
2013-02-24 06:08:00,42.3,41.2,29.82,NNE,30,1.0,4.0,96,0.00,,---,0.00,VWS V14.01,2013-02-24 11:08:00,
2013-02-24 06:13:00,42.2,41.1,29.83,West,270,0.0,4.0,96,0.00,,---,0.00,VWS V14.01,2013-02-24 11:13:00,
2013-02-24 06:18:00,42.3,41.2,29.83,NNE,17,4.0,5.0,96,0.00,,---,0.00,VWS V14.01,2013-02-24 11:18:00,
2013-02-24 06:23:00,42.3,41.2,29.83,West,264,1.0,5.0,96,0.00,,---,0.00,VWS V14.01,2013-02-24 11:23:00,
2013-02-24 06:28:00,42.3,41.2,29.83,NE,54,1.0,5.0,96,0.00,,---,0.00,VWS V14.01,2013-02-24 11:28:00,
2013-02-24 06:33:00,42.2,41.1,29.83,NNE,15,1.0,5.0,96,0.00,,---,0.00,VWS V14.01,2013-02-24 11:33:00,
2013-02-24 06:38:00,42.1,41.0,29.83,NNE,20,1.0,5.0,96,0.00,,---,0.00,VWS V14.01,2013-02-24 11:38:00,
2013-02-24 06:43:00,42.1,41.0,29.83,NE,47,2.0,5.0,96,0.00,,---,0.00,VWS V14.01,2013-02-24 11:43:00,
2013-02-24 06:48:00,42.0,40.9,29.83,North,349,0.0,5.0,96,0.00,,---,0.00,VWS V14.01,2013-02-24 11:48:00,
2013-02-24 06:53:00,42.0,40.9,29.84,NNW,340,2.0,6.0,96,0.00,,---,0.00,VWS V14.01,2013-02-24 11:53:00,
2013-02-24 06:58:00,42.0,40.9,29.84,NE,40,4.0,4.0,96,0.00,,---,0.00,VWS V14.01,2013-02-24 11:58:00,
2013-02-24 07:03:00,41.9,40.8,29.84,NNE,21,3.0,4.0,96,0.00,,---,0.00,VWS V14.01,2013-02-24 12:03:00,
2013-02-24 07:08:00,41.9,40.8,29.84,NNW,339,4.0,5.0,96,0.00,,---,0.00,VWS V14.01,2013-02-24 12:08:00,
2013-02-24 07:13:00,41.9,40.8,29.85,NNW,339,3.0,5.0,96,0.00,,---,0.00,VWS V14.01,2013-02-24 12:13:00,
2013-02-24 07:18:00,41.9,40.8,29.85,NNE,19,0.0,5.0,96,0.00,,---,0.00,VWS V14.01,2013-02-24 12:18:00,
2013-02-24 07:23:00,42.0,40.9,29.85,NNE,22,1.0,6.0,96,0.00,,---,0.00,VWS V14.01,2013-02-24 12:23:00,
2013-02-24 07:28:00,42.1,41.0,29.85,NNE,32,4.0,4.0,96,0.00,,---,0.00,VWS V14.01,2013-02-24 12:28:00,
2013-02-24 07:33:00,42.1,41.0,29.86,NNW,348,2.0,5.0,96,0.00,,---,0.00,VWS V14.01,2013-02-24 12:33:00,
2013-02-24 07:39:00,42.2,41.1,29.86,NW,317,1.0,5.0,96,0.00,,---,0.00,VWS V14.01,2013-02-24 12:39:00,
2013-02-24 07:44:00,42.5,41.4,29.87,NW,311,4.0,5.0,96,0.00,,---,0.00,VWS V14.01,2013-02-24 12:44:00,
2013-02-24 07:49:00,42.7,41.6,29.87,NE,36,2.0,5.0,96,0.00,,---,0.00,VWS V14.01,2013-02-24 12:49:00,
2013-02-24 07:54:00,43.1,42.0,29.87,North,11,6.0,7.0,96,0.00,,---,0.00,VWS V14.01,2013-02-24 12:54:00,
2013-02-24 07:59:00,43.4,42.1,29.88,NE,50,4.0,5.0,95,0.00,,---,0.00,VWS V14.01,2013-02-24 12:59:00,
2013-02-24 08:04:00,43.7,42.4,29.88,NE,34,1.0,6.0,95,0.00,,---,0.00,VWS V14.01,2013-02-24 13:04:00,
2013-02-24 08:09:00,44.0,42.4,29.87,NNW,338,1.0,6.0,94,0.00,,---,0.00,VWS V14.01,2013-02-24 13:09:00,
2013-02-24 08:14:00,44.4,42.5,29.88,NE,36,0.0,6.0,93,0.00,,---,0.00,VWS V14.01,2013-02-24 13:14:00,
2013-02-24 08:19:00,44.7,42.8,29.88,ENE,58,2.0,7.0,93,0.00,,---,0.00,VWS V14.01,2013-02-24 13:19:00,
2013-02-24 08:24:00,45.1,42.9,29.89,NNW,327,1.0,7.0,92,0.00,,---,0.00,VWS V14.01,2013-02-24 13:24:00,
2013-02-24 08:29:00,45.5,43.0,29.89,NNE,16,2.0,6.0,91,0.00,,---,0.00,VWS V14.01,2013-02-24 13:29:00,
2013-02-24 08:34:00,45.9,43.4,29.90,NNE,16,2.0,6.0,91,0.00,,---,0.00,VWS V14.01,2013-02-24 13:34:00,
2013-02-24 08:39:00,46.3,43.5,29.90,NE,39,1.0,6.0,90,0.00,,---,0.00,VWS V14.01,2013-02-24 13:39:00,
2013-02-24 08:44:00,46.7,43.6,29.90,NW,310,4.0,6.0,89,0.00,,---,0.00,VWS V14.01,2013-02-24 13:44:00,
2013-02-24 08:49:00,47.2,43.8,29.90,ENE,71,2.0,7.0,88,0.00,,---,0.00,VWS V14.01,2013-02-24 13:49:00,
2013-02-24 08:54:00,47.7,43.7,29.91,NNE,28,6.0,7.0,86,0.00,,---,0.00,VWS V14.01,2013-02-24 13:54:00,
2013-02-24 08:59:00,48.1,43.5,29.91,NW,324,7.0,7.0,84,0.00,,---,0.00,VWS V14.01,2013-02-24 13:59:00,
2013-02-24 09:04:00,48.5,43.6,29.91,West,281,0.0,7.0,83,0.00,,---,0.00,VWS V14.01,2013-02-24 14:04:00,
2013-02-24 09:09:00,48.8,43.2,29.91,NNW,332,7.0,7.0,81,0.00,,---,0.00,VWS V14.01,2013-02-24 14:09:00,
2013-02-24 09:14:00,49.0,43.4,29.91,NW,305,2.0,7.0,81,0.00,,---,0.00,VWS V14.01,2013-02-24 14:14:00,
2013-02-24 09:19:00,49.2,43.3,29.91,NW,325,2.0,8.0,80,0.00,,---,0.00,VWS V14.01,2013-02-24 14:19:00,
2013-02-24 09:24:00,49.5,43.9,29.91,East,88,1.0,8.0,81,0.00,,---,0.00,VWS V14.01,2013-02-24 14:24:00,
2013-02-24 09:29:00,49.7,42.8,29.91,North,11,5.0,9.0,77,0.00,,---,0.00,VWS V14.01,2013-02-24 14:29:00,
2013-02-24 09:34:00,49.9,42.7,29.90,NNE,27,4.0,9.0,76,0.00,,---,0.00,VWS V14.01,2013-02-24 14:34:00,
2013-02-24 09:39:00,50.1,42.8,29.91,ENE,77,3.0,10.0,76,0.00,,---,0.00,VWS V14.01,2013-02-24 14:39:00,
2013-02-24 09:44:00,50.5,42.5,29.91,NNE,22,6.0,10.0,74,0.00,,---,0.00,VWS V14.01,2013-02-24 14:44:00,
2013-02-24 09:49:00,50.7,42.0,29.90,NNE,24,5.0,10.0,72,0.00,,---,0.00,VWS V14.01,2013-02-24 14:49:00,
2013-02-24 09:54:00,50.9,41.8,29.91,ESE,114,0.0,10.0,71,0.00,,---,0.00,VWS V14.01,2013-02-24 14:54:00,
2013-02-24 09:59:00,51.3,41.5,29.91,ENE,71,5.0,9.0,69,0.00,,---,0.00,VWS V14.01,2013-02-24 14:59:00,
2013-02-24 10:04:00,51.6,41.8,29.91,NE,55,1.0,9.0,69,0.00,,---,0.00,VWS V14.01,2013-02-24 15:04:00,
2013-02-24 10:09:00,51.9,42.1,29.92,NNE,28,2.0,9.0,69,0.00,,---,0.00,VWS V14.01,2013-02-24 15:09:00,
2013-02-24 10:14:00,52.0,41.4,29.91,NNE,28,1.0,9.0,67,0.00,,---,0.00,VWS V14.01,2013-02-24 15:14:00,
2013-02-24 10:19:00,52.2,41.2,29.91,North,351,4.0,9.0,66,0.00,,---,0.00,VWS V14.01,2013-02-24 15:19:00,
2013-02-24 10:24:00,52.6,42.3,29.91,SW,222,4.0,9.0,68,0.00,,---,0.00,VWS V14.01,2013-02-24 15:24:00,
2013-02-24 10:30:00,52.9,40.2,29.91,North,11,3.0,8.0,62,0.00,,---,0.00,VWS V14.01,2013-02-24 15:30:00,
2013-02-24 10:35:00,52.9,40.7,29.91,ENE,77,5.0,8.0,63,0.00,,---,0.00,VWS V14.01,2013-02-24 15:35:00,
2013-02-24 10:40:00,53.0,40.3,29.91,WNW,287,2.0,11.0,62,0.00,,---,0.00,VWS V14.01,2013-02-24 15:40:00,
2013-02-24 10:45:00,53.3,40.2,29.92,NNE,31,4.0,11.0,61,0.00,,---,0.00,VWS V14.01,2013-02-24 15:45:00,
2013-02-24 10:50:00,53.2,40.1,29.92,WNW,286,2.0,11.0,61,0.00,,---,0.00,VWS V14.01,2013-02-24 15:50:00,
2013-02-24 10:55:00,53.5,40.0,29.92,WNW,296,4.0,11.0,60,0.00,,---,0.00,VWS V14.01,2013-02-24 15:55:00,
2013-02-24 11:00:00,53.7,40.6,29.92,NW,311,2.0,6.0,61,0.00,,---,0.00,VWS V14.01,2013-02-24 16:00:00,
2013-02-24 11:05:00,53.6,40.1,29.92,West,277,1.0,8.0,60,0.00,,---,0.00,VWS V14.01,2013-02-24 16:05:00,
2013-02-24 11:10:00,54.0,41.3,29.93,NNW,346,4.0,8.0,62,0.00,,---,0.00,VWS V14.01,2013-02-24 16:10:00,
2013-02-24 11:15:00,54.2,40.6,29.93,North,11,7.0,8.0,60,0.00,,---,0.00,VWS V14.01,2013-02-24 16:15:00,
2013-02-24 11:20:00,54.4,41.2,29.93,NW,317,4.0,8.0,61,0.00,,---,0.00,VWS V14.01,2013-02-24 16:20:00,
2013-02-24 11:25:00,54.7,40.7,29.92,NW,325,1.0,8.0,59,0.00,,---,0.00,VWS V14.01,2013-02-24 16:25:00,
2013-02-24 11:30:00,54.7,40.2,29.92,WSW,241,4.0,7.0,58,0.00,,---,0.00,VWS V14.01,2013-02-24 16:30:00,
2013-02-24 11:35:00,54.9,39.5,29.92,NW,305,8.0,8.0,56,0.00,,---,0.00,VWS V14.01,2013-02-24 16:35:00,
2013-02-24 11:40:00,54.9,39.0,29.92,West,272,1.0,8.0,55,0.00,,---,0.00,VWS V14.01,2013-02-24 16:40:00,
2013-02-24 11:45:00,55.1,38.8,29.91,NNW,343,6.0,10.0,54,0.00,,---,0.00,VWS V14.01,2013-02-24 16:45:00,
2013-02-24 11:50:00,55.3,37.0,29.91,WNW,299,3.0,10.0,50,0.00,,---,0.00,VWS V14.01,2013-02-24 16:50:00,
2013-02-24 11:55:00,55.3,39.0,29.91,ESE,113,1.0,10.0,54,0.00,,---,0.00,VWS V14.01,2013-02-24 16:55:00,
2013-02-24 12:00:00,55.4,37.6,29.91,South,183,1.0,8.0,51,0.00,,---,0.00,VWS V14.01,2013-02-24 17:00:00,
2013-02-24 12:05:00,55.8,38.5,29.91,West,260,2.0,8.0,52,0.00,,---,0.00,VWS V14.01,2013-02-24 17:05:00,
2013-02-24 12:10:00,56.3,38.9,29.91,WNW,286,5.0,8.0,52,0.00,,---,0.00,VWS V14.01,2013-02-24 17:10:00,
2013-02-24 12:15:00,56.3,39.4,29.91,NW,307,1.0,8.0,53,0.00,,---,0.00,VWS V14.01,2013-02-24 17:15:00,
2013-02-24 12:20:00,56.4,39.5,29.91,West,279,1.0,8.0,53,0.00,,---,0.00,VWS V14.01,2013-02-24 17:20:00,
2013-02-24 12:25:00,56.3,38.9,29.91,North,5,2.0,8.0,52,0.00,,---,0.00,VWS V14.01,2013-02-24 17:25:00,
2013-02-24 12:30:00,56.3,38.9,29.91,NW,317,5.0,5.0,52,0.00,,---,0.00,VWS V14.01,2013-02-24 17:30:00,
2013-02-24 12:35:00,56.2,39.8,29.90,NE,36,1.0,8.0,54,0.00,,---,0.00,VWS V14.01,2013-02-24 17:35:00,
2013-02-24 12:40:00,56.5,38.6,29.90,WSW,254,1.0,8.0,51,0.00,,---,0.00,VWS V14.01,2013-02-24 17:40:00,
2013-02-24 12:46:00,56.9,39.0,29.90,NW,304,3.0,8.0,51,0.00,,---,0.00,VWS V14.01,2013-02-24 17:46:00,
2013-02-24 12:51:00,57.0,38.0,29.90,NNW,341,7.0,8.0,49,0.00,,---,0.00,VWS V14.01,2013-02-24 17:51:00,
2013-02-24 12:56:00,57.0,38.6,29.90,NE,55,1.0,10.0,50,0.00,,---,0.00,VWS V14.01,2013-02-24 17:56:00,
2013-02-24 13:01:00,57.3,38.8,29.90,North,351,3.0,8.0,50,0.00,,---,0.00,VWS V14.01,2013-02-24 18:01:00,
2013-02-24 13:06:00,57.7,38.2,29.89,WNW,292,5.0,8.0,48,0.00,,---,0.00,VWS V14.01,2013-02-24 18:06:00,
2013-02-24 13:11:00,58.0,39.0,29.89,NNE,16,7.0,8.0,49,0.00,,---,0.00,VWS V14.01,2013-02-24 18:11:00,
2013-02-24 13:16:00,57.5,37.5,29.89,NNW,348,1.0,8.0,47,0.00,,---,0.00,VWS V14.01,2013-02-24 18:16:00,
2013-02-24 13:21:00,57.6,38.1,29.89,ENE,58,4.0,8.0,48,0.00,,---,0.00,VWS V14.01,2013-02-24 18:21:00,
2013-02-24 13:26:00,57.9,38.3,29.89,NNW,348,4.0,7.0,48,0.00,,---,0.00,VWS V14.01,2013-02-24 18:26:00,
2013-02-24 13:31:00,58.2,38.6,29.88,ENE,63,1.0,7.0,48,0.00,,---,0.00,VWS V14.01,2013-02-24 18:31:00,
2013-02-24 13:36:00,58.2,37.5,29.88,NNW,329,2.0,7.0,46,0.00,,---,0.00,VWS V14.01,2013-02-24 18:36:00,
2013-02-24 13:41:00,58.3,37.6,29.88,East,80,0.0,8.0,46,0.00,,---,0.00,VWS V14.01,2013-02-24 18:41:00,
2013-02-24 13:46:00,58.9,38.2,29.88,NNW,329,8.0,8.0,46,0.00,,---,0.00,VWS V14.01,2013-02-24 18:46:00,
2013-02-24 13:51:00,59.1,37.8,29.88,West,276,1.0,8.0,45,0.00,,---,0.00,VWS V14.01,2013-02-24 18:51:00,
2013-02-24 13:56:00,59.6,36.5,29.87,WSW,253,2.0,2.0,42,0.00,,---,0.00,VWS V14.01,2013-02-24 18:56:00,
2013-02-24 14:01:00,59.3,36.8,29.87,NW,323,3.0,8.0,43,0.00,,---,0.00,VWS V14.01,2013-02-24 19:01:00,
2013-02-24 14:06:00,59.3,35.6,29.87,NE,34,7.0,10.0,41,0.00,,---,0.00,VWS V14.01,2013-02-24 19:06:00,
2013-02-24 14:11:00,59.3,36.2,29.87,NNE,31,0.0,10.0,42,0.00,,---,0.00,VWS V14.01,2013-02-24 19:11:00,
2013-02-24 14:16:00,59.1,35.4,29.87,West,263,4.0,10.0,41,0.00,,---,0.00,VWS V14.01,2013-02-24 19:16:00,
2013-02-24 14:21:00,59.1,36.0,29.87,ESE,113,1.0,10.0,42,0.00,,---,0.00,VWS V14.01,2013-02-24 19:21:00,
2013-02-24 14:26:00,59.9,36.8,29.87,NNW,340,4.0,4.0,42,0.00,,---,0.00,VWS V14.01,2013-02-24 19:26:00,
2013-02-24 14:31:00,60.2,37.0,29.87,WNW,286,2.0,6.0,42,0.00,,---,0.00,VWS V14.01,2013-02-24 19:31:00,
2013-02-24 14:36:00,60.4,36.6,29.88,NNW,327,5.0,6.0,41,0.00,,---,0.00,VWS V14.01,2013-02-24 19:36:00,
2013-02-24 14:41:00,60.3,35.9,29.87,NNW,334,1.0,6.0,40,0.00,,---,0.00,VWS V14.01,2013-02-24 19:41:00,
2013-02-24 14:46:00,60.4,36.0,29.87,West,271,4.0,6.0,40,0.00,,---,0.00,VWS V14.01,2013-02-24 19:46:00,
2013-02-24 14:51:00,60.4,36.0,29.87,WSW,248,8.0,8.0,40,0.00,,---,0.00,VWS V14.01,2013-02-24 19:51:00,
2013-02-24 14:56:00,60.7,35.6,29.87,NNW,329,7.0,7.0,39,0.00,,---,0.00,VWS V14.01,2013-02-24 19:56:00,
2013-02-24 15:01:00,60.9,35.8,29.87,West,262,2.0,8.0,39,0.00,,---,0.00,VWS V14.01,2013-02-24 20:01:00,
2013-02-24 15:06:00,61.1,34.7,29.87,North,11,6.0,8.0,37,0.00,,---,0.00,VWS V14.01,2013-02-24 20:06:00,
2013-02-24 15:11:00,61.1,34.0,29.87,WSW,254,8.0,10.0,36,0.00,,---,0.00,VWS V14.01,2013-02-24 20:11:00,
2013-02-24 15:16:00,60.8,34.4,29.87,NW,304,2.0,10.0,37,0.00,,---,0.00,VWS V14.01,2013-02-24 20:16:00,
2013-02-24 15:21:00,60.5,34.8,29.87,NW,307,5.0,10.0,38,0.00,,---,0.00,VWS V14.01,2013-02-24 20:21:00,
2013-02-24 15:26:00,60.6,34.9,29.87,NW,322,1.0,5.0,38,0.00,,---,0.00,VWS V14.01,2013-02-24 20:26:00,
2013-02-24 15:31:00,61.1,36.0,29.87,NNE,26,0.0,5.0,39,0.00,,---,0.00,VWS V14.01,2013-02-24 20:31:00,
2013-02-24 15:36:00,62.0,36.1,29.87,NW,313,2.0,5.0,38,0.00,,---,0.00,VWS V14.01,2013-02-24 20:36:00,
2013-02-24 15:41:00,62.0,34.8,29.87,ESE,123,0.0,7.0,36,0.00,,---,0.00,VWS V14.01,2013-02-24 20:41:00,
2013-02-24 15:46:00,62.1,33.4,29.87,NNE,32,5.0,7.0,34,0.00,,---,0.00,VWS V14.01,2013-02-24 20:46:00,
2013-02-24 15:51:00,61.9,32.5,29.87,NW,307,5.0,10.0,33,0.00,,---,0.00,VWS V14.01,2013-02-24 20:51:00,
2013-02-24 15:56:00,61.9,32.5,29.87,WSW,254,2.0,2.0,33,0.00,,---,0.00,VWS V14.01,2013-02-24 20:56:00,
2013-02-24 16:02:00,62.1,31.9,29.87,NNW,329,5.0,5.0,32,0.00,,---,0.00,VWS V14.01,2013-02-24 21:02:00,
2013-02-24 16:07:00,61.8,28.4,29.88,WSW,254,2.0,10.0,28,0.00,,---,0.00,VWS V14.01,2013-02-24 21:07:00,
2013-02-24 16:12:00,61.3,27.9,29.88,North,360,7.0,10.0,28,0.00,,---,0.00,VWS V14.01,2013-02-24 21:12:00,
2013-02-24 16:17:00,60.9,28.5,29.88,NW,324,8.0,10.0,29,0.00,,---,0.00,VWS V14.01,2013-02-24 21:17:00,
2013-02-24 16:22:00,60.8,28.4,29.88,West,276,8.0,10.0,29,0.00,,---,0.00,VWS V14.01,2013-02-24 21:22:00,
2013-02-24 16:27:00,61.0,29.4,29.88,NE,40,2.0,3.0,30,0.00,,---,0.00,VWS V14.01,2013-02-24 21:27:00,
2013-02-24 16:32:00,61.0,26.8,29.88,NNW,346,6.0,7.0,27,0.00,,---,0.00,VWS V14.01,2013-02-24 21:32:00,
2013-02-24 16:37:00,60.8,26.6,29.88,NNW,327,2.0,12.0,27,0.00,,---,0.00,VWS V14.01,2013-02-24 21:37:00,
2013-02-24 16:42:00,60.7,28.3,29.88,NNW,339,5.0,12.0,29,0.00,,---,0.00,VWS V14.01,2013-02-24 21:42:00,
2013-02-24 16:47:00,60.7,26.5,29.88,NE,44,3.0,12.0,27,0.00,,---,0.00,VWS V14.01,2013-02-24 21:47:00,
2013-02-24 16:52:00,60.7,26.5,29.89,NW,315,3.0,12.0,27,0.00,,---,0.00,VWS V14.01,2013-02-24 21:52:00,
2013-02-24 16:57:00,60.4,26.3,29.89,NNE,28,7.0,8.0,27,0.00,,---,0.00,VWS V14.01,2013-02-24 21:57:00,
2013-02-24 17:02:00,60.3,27.1,29.89,ENE,68,4.0,8.0,28,0.00,,---,0.00,VWS V14.01,2013-02-24 22:02:00,
2013-02-24 17:07:00,60.3,26.2,29.89,NE,49,5.0,8.0,27,0.00,,---,0.00,VWS V14.01,2013-02-24 22:07:00,
2013-02-24 17:12:00,60.1,26.9,29.89,NW,315,8.0,10.0,28,0.00,,---,0.00,VWS V14.01,2013-02-24 22:12:00,
2013-02-24 17:17:00,60.0,27.7,29.89,NW,319,5.0,10.0,29,0.00,,---,0.00,VWS V14.01,2013-02-24 22:17:00,
2013-02-24 17:22:00,59.9,27.6,29.89,NW,322,1.0,10.0,29,0.00,,---,0.00,VWS V14.01,2013-02-24 22:22:00,
2013-02-24 17:27:00,59.8,26.6,29.90,NW,315,2.0,8.0,28,0.00,,---,0.00,VWS V14.01,2013-02-24 22:27:00,
2013-02-24 17:32:00,59.5,27.2,29.90,ENE,65,4.0,8.0,29,0.00,,---,0.00,VWS V14.01,2013-02-24 22:32:00,
2013-02-24 17:37:00,59.3,27.9,29.90,NNW,334,5.0,8.0,30,0.00,,---,0.00,VWS V14.01,2013-02-24 22:37:00,
2013-02-24 17:42:00,58.8,26.6,29.90,ENE,57,1.0,8.0,29,0.00,,---,0.00,VWS V14.01,2013-02-24 22:42:00,
2013-02-24 17:47:00,58.2,27.7,29.90,North,351,1.0,8.0,31,0.00,,---,0.00,VWS V14.01,2013-02-24 22:47:00,
2013-02-24 17:52:00,57.7,29.5,29.90,NNW,341,0.0,8.0,34,0.00,,---,0.00,VWS V14.01,2013-02-24 22:52:00,
2013-02-24 17:57:00,57.1,28.3,29.91,NNE,13,2.0,2.0,33,0.00,,---,0.00,VWS V14.01,2013-02-24 22:57:00,
2013-02-24 18:02:00,56.5,28.5,29.91,NNE,21,0.0,2.0,34,0.00,,---,0.00,VWS V14.01,2013-02-24 23:02:00,
2013-02-24 18:08:00,56.0,28.0,29.91,NNE,20,0.0,2.0,34,0.00,,---,0.00,VWS V14.01,2013-02-24 23:08:00,
2013-02-24 18:13:00,55.3,28.8,29.91,ESE,114,0.0,2.0,36,0.00,,---,0.00,VWS V14.01,2013-02-24 23:13:00,
2013-02-24 18:18:00,54.4,28.7,29.91,ESE,114,0.0,2.0,37,0.00,,---,0.00,VWS V14.01,2013-02-24 23:18:00,
2013-02-24 18:23:00,53.6,29.9,29.91,ESE,113,0.0,2.0,40,0.00,,---,0.00,VWS V14.01,2013-02-24 23:23:00,
2013-02-24 18:28:00,52.8,30.9,29.91,ESE,113,1.0,1.0,43,0.00,,---,0.00,VWS V14.01,2013-02-24 23:28:00,
2013-02-24 18:33:00,52.1,31.4,29.92,ESE,113,0.0,1.0,45,0.00,,---,0.00,VWS V14.01,2013-02-24 23:33:00,
2013-02-24 18:38:00,51.4,32.9,29.92,ESE,111,0.0,1.0,49,0.00,,---,0.00,VWS V14.01,2013-02-24 23:38:00,
2013-02-24 18:43:00,50.7,34.2,29.92,ESE,111,0.0,1.0,53,0.00,,---,0.00,VWS V14.01,2013-02-24 23:43:00,
2013-02-24 18:48:00,50.0,33.1,29.92,ESE,111,0.0,1.0,52,0.00,,---,0.00,VWS V14.01,2013-02-24 23:48:00,
2013-02-24 18:53:00,49.3,33.4,29.93,East,101,0.0,1.0,54,0.00,,---,0.00,VWS V14.01,2013-02-24 23:53:00,
2013-02-24 18:58:00,48.7,33.7,29.93,East,101,0.0,0.0,56,0.00,,---,0.00,VWS V14.01,2013-02-24 23:58:00,
2013-02-24 19:03:00,48.2,33.3,29.93,East,101,0.0,0.0,56,0.00,,---,0.00,VWS V14.01,2013-02-25 00:03:00,
2013-02-24 19:08:00,47.7,34.9,29.93,East,101,0.0,0.0,61,0.00,,---,0.00,VWS V14.01,2013-02-25 00:08:00,
2013-02-24 19:13:00,47.1,33.9,29.93,East,101,0.0,0.0,60,0.00,,---,0.00,VWS V14.01,2013-02-25 00:13:00,
2013-02-24 19:18:00,46.7,33.2,29.94,East,101,0.0,0.0,59,0.00,,---,0.00,VWS V14.01,2013-02-25 00:18:00,
2013-02-24 19:23:00,46.3,33.6,29.94,East,101,0.0,0.0,61,0.00,,---,0.00,VWS V14.01,2013-02-25 00:23:00,
2013-02-24 19:28:00,45.9,33.6,29.94,East,101,0.0,0.0,62,0.00,,---,0.00,VWS V14.01,2013-02-25 00:28:00,
2013-02-24 19:33:00,45.5,34.8,29.95,East,101,0.0,0.0,66,0.00,,---,0.00,VWS V14.01,2013-02-25 00:33:00,
2013-02-24 19:38:00,45.2,34.9,29.95,East,101,0.0,0.0,67,0.00,,---,0.00,VWS V14.01,2013-02-25 00:38:00,
2013-02-24 19:43:00,44.7,33.7,29.96,East,101,0.0,0.0,65,0.00,,---,0.00,VWS V14.01,2013-02-25 00:43:00,
2013-02-24 19:48:00,44.3,32.9,29.96,NE,36,0.0,0.0,64,0.00,,---,0.00,VWS V14.01,2013-02-25 00:48:00,
2013-02-24 19:53:00,44.1,33.5,29.96,NNE,24,1.0,4.0,66,0.00,,---,0.00,VWS V14.01,2013-02-25 00:53:00,
2013-02-24 19:58:00,44.0,34.9,29.96,NNE,22,0.0,1.0,70,0.00,,---,0.00,VWS V14.01,2013-02-25 00:58:00,
2013-02-24 20:03:00,43.9,34.0,29.97,NE,44,1.0,1.0,68,0.00,,---,0.00,VWS V14.01,2013-02-25 01:03:00,
2013-02-24 20:08:00,43.9,34.0,29.97,NNE,13,0.0,1.0,68,0.00,,---,0.00,VWS V14.01,2013-02-25 01:08:00,
2013-02-24 20:13:00,43.8,33.9,29.98,NNE,14,0.0,1.0,68,0.00,,---,0.00,VWS V14.01,2013-02-25 01:13:00,
2013-02-24 20:18:00,43.7,33.1,29.98,NNE,13,2.0,2.0,66,0.00,,---,0.00,VWS V14.01,2013-02-25 01:18:00,
2013-02-24 20:23:00,43.6,33.4,29.98,North,360,1.0,2.0,67,0.00,,---,0.00,VWS V14.01,2013-02-25 01:23:00,
2013-02-24 20:29:00,43.5,32.9,29.98,NNW,344,1.0,2.0,66,0.00,,---,0.00,VWS V14.01,2013-02-25 01:29:00,
2013-02-24 20:33:00,43.4,32.8,29.98,NNW,344,1.0,2.0,66,0.00,,---,0.00,VWS V14.01,2013-02-25 01:33:00,
2013-02-24 20:39:00,43.3,33.8,29.98,NNW,344,1.0,2.0,69,0.00,,---,0.00,VWS V14.01,2013-02-25 01:39:00,
2013-02-24 20:44:00,43.3,32.3,29.98,NNE,15,0.0,2.0,65,0.00,,---,0.00,VWS V14.01,2013-02-25 01:44:00,
2013-02-24 20:49:00,43.5,32.9,29.99,North,11,0.0,2.0,66,0.00,,---,0.00,VWS V14.01,2013-02-25 01:49:00,
2013-02-24 20:54:00,43.6,31.9,29.99,ENE,59,1.0,2.0,63,0.00,,---,0.00,VWS V14.01,2013-02-25 01:54:00,
2013-02-24 20:59:00,44.0,30.2,29.99,NNE,15,0.0,1.0,58,0.00,,---,0.00,VWS V14.01,2013-02-25 01:59:00,
2013-02-24 21:04:00,44.1,30.3,29.99,NNE,23,0.0,2.0,58,0.00,,---,0.00,VWS V14.01,2013-02-25 02:04:00,
2013-02-24 21:09:00,44.0,29.8,29.99,NNE,23,1.0,2.0,57,0.00,,---,0.00,VWS V14.01,2013-02-25 02:09:00,
2013-02-24 21:14:00,43.9,30.1,29.99,NNW,346,0.0,2.0,58,0.00,,---,0.00,VWS V14.01,2013-02-25 02:14:00,
2013-02-24 21:19:00,43.7,32.7,29.99,NNE,23,1.0,2.0,65,0.00,,---,0.00,VWS V14.01,2013-02-25 02:19:00,
2013-02-24 21:24:00,43.2,32.6,29.99,NNE,17,1.0,2.0,66,0.00,,---,0.00,VWS V14.01,2013-02-25 02:24:00,
2013-02-24 21:29:00,42.9,30.8,29.99,NE,55,4.0,4.0,62,0.00,,---,0.00,VWS V14.01,2013-02-25 02:29:00,
2013-02-24 21:34:00,43.2,29.0,30.00,NNE,28,1.0,4.0,57,0.00,,---,0.00,VWS V14.01,2013-02-25 02:34:00,
2013-02-24 21:39:00,43.4,28.8,30.00,NNE,24,1.0,4.0,56,0.00,,---,0.00,VWS V14.01,2013-02-25 02:39:00,
2013-02-24 21:44:00,43.3,28.7,30.00,NNE,23,0.0,4.0,56,0.00,,---,0.00,VWS V14.01,2013-02-25 02:44:00,
2013-02-24 21:49:00,43.0,28.8,30.00,NNE,23,1.0,4.0,57,0.00,,---,0.00,VWS V14.01,2013-02-25 02:49:00,
2013-02-24 21:54:00,42.6,29.7,30.00,NNE,22,1.0,4.0,60,0.00,,---,0.00,VWS V14.01,2013-02-25 02:54:00,
2013-02-24 21:59:00,42.1,30.0,30.00,NNE,17,2.0,2.0,62,0.00,,---,0.00,VWS V14.01,2013-02-25 02:59:00,
2013-02-24 22:04:00,41.9,29.0,30.00,North,351,1.0,2.0,60,0.00,,---,0.00,VWS V14.01,2013-02-25 03:04:00,
2013-02-24 22:09:00,41.9,28.2,30.00,NNE,28,2.0,2.0,58,0.00,,---,0.00,VWS V14.01,2013-02-25 03:09:00,
2013-02-24 22:14:00,42.0,28.7,30.00,NNE,26,1.0,2.0,59,0.00,,---,0.00,VWS V14.01,2013-02-25 03:14:00,
2013-02-24 22:19:00,42.0,28.3,30.00,North,5,0.0,2.0,58,0.00,,---,0.00,VWS V14.01,2013-02-25 03:19:00,
2013-02-24 22:24:00,42.2,28.5,30.00,NNE,23,1.0,4.0,58,0.00,,---,0.00,VWS V14.01,2013-02-25 03:24:00,
2013-02-24 22:29:00,42.2,29.3,30.00,NNE,21,2.0,2.0,60,0.00,,---,0.00,VWS V14.01,2013-02-25 03:29:00,
2013-02-24 22:34:00,42.3,29.0,30.00,NNE,24,1.0,2.0,59,0.00,,---,0.00,VWS V14.01,2013-02-25 03:34:00,
2013-02-24 22:39:00,42.3,28.2,30.00,NNE,28,1.0,2.0,57,0.00,,---,0.00,VWS V14.01,2013-02-25 03:39:00,
2013-02-24 22:44:00,42.4,28.3,30.00,NE,46,1.0,2.0,57,0.00,,---,0.00,VWS V14.01,2013-02-25 03:44:00,
2013-02-24 22:49:00,42.2,28.1,30.00,NE,46,1.0,2.0,57,0.00,,---,0.00,VWS V14.01,2013-02-25 03:49:00,
2013-02-24 22:55:00,41.9,27.4,30.00,NE,40,1.0,2.0,56,0.00,,---,0.00,VWS V14.01,2013-02-25 03:55:00,
2013-02-24 23:00:00,41.8,27.3,30.00,NE,40,1.0,1.0,56,0.00,,---,0.00,VWS V14.01,2013-02-25 04:00:00,
2013-02-24 23:05:00,41.3,28.1,30.00,NE,34,1.0,1.0,59,0.00,,---,0.00,VWS V14.01,2013-02-25 04:05:00,
2013-02-24 23:10:00,40.9,27.3,30.00,NNE,12,0.0,2.0,58,0.00,,---,0.00,VWS V14.01,2013-02-25 04:10:00,
2013-02-24 23:15:00,40.7,27.9,30.01,North,11,0.0,2.0,60,0.00,,---,0.00,VWS V14.01,2013-02-25 04:15:00,
2013-02-24 23:20:00,40.2,28.6,30.01,NNE,12,0.0,2.0,63,0.00,,---,0.00,VWS V14.01,2013-02-25 04:20:00,
2013-02-24 23:25:00,39.8,28.2,30.01,NNE,12,1.0,2.0,63,0.00,,---,0.00,VWS V14.01,2013-02-25 04:25:00,
2013-02-24 23:30:00,39.5,27.2,30.01,NNE,12,0.0,1.0,61,0.00,,---,0.00,VWS V14.01,2013-02-25 04:30:00,
2013-02-24 23:35:00,39.6,27.3,30.01,NNE,14,1.0,1.0,61,0.00,,---,0.00,VWS V14.01,2013-02-25 04:35:00,
2013-02-24 23:40:00,39.9,28.0,30.01,NNE,14,0.0,1.0,62,0.00,,---,0.00,VWS V14.01,2013-02-25 04:40:00,
2013-02-24 23:45:00,39.7,29.7,30.02,NNE,14,0.0,1.0,67,0.00,,---,0.00,VWS V14.01,2013-02-25 04:45:00,
2013-02-24 23:50:00,39.2,29.9,30.02,NNE,19,0.0,1.0,69,0.00,,---,0.00,VWS V14.01,2013-02-25 04:50:00,
2013-02-24 23:55:00,38.8,27.7,30.02,NNE,19,0.0,1.0,64,0.00,,---,0.00,VWS V14.01,2013-02-25 04:55:00,